createdAt,value
2016-11-02T00:00:17.142Z,0
2016-11-02T00:01:25.911Z,0
2016-11-02T00:02:34.923Z,0
2016-11-02T00:03:43.615Z,0
2016-11-02T00:04:52.407Z,0
2016-11-02T00:06:01.111Z,0
2016-11-02T00:07:09.811Z,0
2016-11-02T00:08:18.540Z,0
2016-11-02T00:09:27.238Z,0
2016-11-02T00:10:35.994Z,0
2016-11-02T00:11:44.690Z,0
2016-11-02T00:12:53.388Z,0
2016-11-02T00:14:02.083Z,0
2016-11-02T00:15:10.822Z,0
2016-11-02T00:16:19.566Z,0
2016-11-02T00:17:28.260Z,0
2016-11-02T00:18:36.957Z,0
2016-11-02T00:19:45.652Z,0
2016-11-02T00:20:54.346Z,0
2016-11-02T00:22:03.094Z,0
2016-11-02T00:23:11.789Z,0
2016-11-02T00:24:20.496Z,0
2016-11-02T00:25:29.220Z,0
2016-11-02T00:26:37.917Z,0
2016-11-02T00:27:46.658Z,0
2016-11-02T00:28:55.352Z,0
2016-11-02T00:30:04.048Z,0
2016-11-02T00:31:12.746Z,0
2016-11-02T00:32:21.444Z,0
2016-11-02T00:33:30.277Z,0
2016-11-02T00:34:39.019Z,0
2016-11-02T00:35:47.711Z,0
2016-11-02T00:36:56.404Z,0
2016-11-02T00:38:05.099Z,0
2016-11-02T00:39:13.994Z,0
2016-11-02T00:40:22.704Z,0
2016-11-02T00:41:31.404Z,0
2016-11-02T00:42:40.101Z,0
2016-11-02T00:43:48.796Z,0
2016-11-02T00:44:57.490Z,0
2016-11-02T00:46:06.183Z,0
2016-11-02T00:47:14.880Z,0
2016-11-02T00:48:23.579Z,0
2016-11-02T00:49:32.271Z,0
2016-11-02T00:50:40.999Z,0
2016-11-02T00:51:49.690Z,0
2016-11-02T00:52:58.381Z,0
2016-11-02T00:54:07.116Z,0
2016-11-02T00:55:15.809Z,0
2016-11-02T00:56:24.537Z,0
2016-11-02T00:57:33.232Z,0
2016-11-02T00:58:41.971Z,0
2016-11-02T00:59:50.663Z,0
2016-11-02T01:00:59.362Z,0
2016-11-02T01:02:08.054Z,0
2016-11-02T01:03:16.748Z,0
2016-11-02T01:04:25.476Z,0
2016-11-02T01:05:34.178Z,0
2016-11-02T01:06:42.875Z,0
2016-11-02T01:07:51.578Z,0
2016-11-02T01:09:00.274Z,0
2016-11-02T01:10:08.975Z,0
2016-11-02T01:11:17.713Z,0
2016-11-02T01:12:26.444Z,0
2016-11-02T01:13:35.134Z,0
2016-11-02T01:14:43.830Z,0
2016-11-02T01:15:52.526Z,0
2016-11-02T01:17:01.218Z,0
2016-11-02T01:18:09.918Z,0
2016-11-02T01:19:18.611Z,0
2016-11-02T01:20:27.313Z,0
2016-11-02T01:21:36.003Z,0
2016-11-02T01:22:45.012Z,0
2016-11-02T01:23:53.716Z,0
2016-11-02T01:25:02.414Z,0
2016-11-02T01:26:11.115Z,0
2016-11-02T01:27:19.844Z,0
2016-11-02T01:28:28.542Z,0
2016-11-02T01:29:37.239Z,0
2016-11-02T01:30:45.935Z,0
2016-11-02T01:31:54.635Z,0
2016-11-02T01:33:03.328Z,0
2016-11-02T01:34:12.029Z,0
2016-11-02T01:35:20.737Z,0
2016-11-02T01:36:29.430Z,0
2016-11-02T01:37:38.125Z,0
2016-11-02T01:38:46.823Z,0
2016-11-02T01:39:55.519Z,0
2016-11-02T01:41:04.251Z,0
2016-11-02T01:42:12.941Z,0
2016-11-02T01:43:21.957Z,0
2016-11-02T01:44:30.657Z,0
2016-11-02T01:45:39.353Z,0
2016-11-02T01:46:48.047Z,0
2016-11-02T01:47:56.761Z,0
2016-11-02T01:49:05.458Z,0
2016-11-02T01:50:14.156Z,0
2016-11-02T01:51:22.847Z,0
2016-11-02T01:52:31.547Z,0
2016-11-02T01:53:40.239Z,0
2016-11-02T01:54:48.929Z,0
2016-11-02T01:55:57.620Z,0
2016-11-02T01:57:06.316Z,0
2016-11-02T01:58:15.009Z,0
2016-11-02T01:59:23.701Z,0
2016-11-02T02:00:32.391Z,0
2016-11-02T02:01:41.086Z,0
2016-11-02T02:02:50.133Z,0
2016-11-02T02:03:58.858Z,0
2016-11-02T02:05:07.553Z,0
2016-11-02T02:06:16.241Z,0
2016-11-02T02:07:24.933Z,0
2016-11-02T02:08:33.626Z,0
2016-11-02T02:09:42.316Z,0
2016-11-02T02:10:51.008Z,0
2016-11-02T02:11:59.702Z,0
2016-11-02T02:13:08.429Z,0
2016-11-02T02:14:17.122Z,0
2016-11-02T02:15:25.810Z,0
2016-11-02T02:16:34.498Z,0
2016-11-02T02:17:43.190Z,0
2016-11-02T02:18:51.884Z,0
2016-11-02T02:20:00.577Z,0
2016-11-02T02:21:09.266Z,0
2016-11-02T02:22:17.958Z,0
2016-11-02T02:23:26.647Z,0
2016-11-02T02:24:35.338Z,0
2016-11-02T02:25:44.032Z,0
2016-11-02T02:26:52.729Z,0
2016-11-02T02:28:01.434Z,0
2016-11-02T02:29:10.130Z,0
2016-11-02T02:30:18.865Z,0
2016-11-02T02:31:27.587Z,0
2016-11-02T02:32:36.284Z,0
2016-11-02T02:33:44.980Z,0
2016-11-02T02:34:53.681Z,0
2016-11-02T02:36:02.375Z,0
2016-11-02T02:37:11.116Z,0
2016-11-02T02:38:19.812Z,0
2016-11-02T02:39:28.509Z,0
2016-11-02T02:40:37.203Z,0
2016-11-02T02:41:45.899Z,0
2016-11-02T02:42:54.611Z,0
2016-11-02T02:44:03.309Z,0
2016-11-02T02:45:12.047Z,0
2016-11-02T02:46:20.746Z,0
2016-11-02T02:47:29.444Z,0
2016-11-02T02:48:38.136Z,0
2016-11-02T02:49:46.842Z,0
2016-11-02T02:50:55.541Z,0
2016-11-02T02:52:04.243Z,0
2016-11-02T02:53:12.940Z,0
2016-11-02T02:54:21.632Z,0
2016-11-02T02:55:30.333Z,0
2016-11-02T02:56:39.021Z,0
2016-11-02T02:57:47.725Z,0
2016-11-02T02:58:56.423Z,0
2016-11-02T03:00:05.120Z,0
2016-11-02T03:01:14.133Z,0
2016-11-02T03:02:22.829Z,0
2016-11-02T03:03:31.528Z,0
2016-11-02T03:04:40.226Z,0
2016-11-02T03:05:48.914Z,0
2016-11-02T03:06:57.622Z,0
2016-11-02T03:08:06.320Z,0
2016-11-02T03:09:15.018Z,0
2016-11-02T03:10:23.744Z,0
2016-11-02T03:11:32.461Z,0
2016-11-02T03:12:41.164Z,0
2016-11-02T03:13:49.905Z,0
2016-11-02T03:14:58.600Z,0
2016-11-02T03:16:07.300Z,0
2016-11-02T03:17:15.993Z,0
2016-11-02T03:18:24.687Z,0
2016-11-02T03:19:33.383Z,0
2016-11-02T03:20:42.078Z,0
2016-11-02T03:21:50.777Z,0
2016-11-02T03:22:59.471Z,0
2016-11-02T03:24:08.480Z,0
2016-11-02T03:25:17.174Z,0
2016-11-02T03:26:25.896Z,0
2016-11-02T03:27:34.593Z,0
2016-11-02T03:28:43.323Z,0
2016-11-02T03:29:52.062Z,0
2016-11-02T03:31:00.775Z,0
2016-11-02T03:32:09.471Z,0
2016-11-02T03:33:18.475Z,0
2016-11-02T03:34:27.170Z,0
2016-11-02T03:35:35.876Z,0
2016-11-02T03:36:44.573Z,0
2016-11-02T03:37:53.266Z,0
2016-11-02T03:39:01.998Z,0
2016-11-02T03:40:10.701Z,0
2016-11-02T03:41:19.711Z,0
2016-11-02T03:42:28.405Z,0
2016-11-02T03:43:37.110Z,0
2016-11-02T03:44:45.800Z,0
2016-11-02T03:45:54.501Z,0
2016-11-02T03:47:03.197Z,0
2016-11-02T03:48:11.893Z,0
2016-11-02T03:49:20.589Z,0
2016-11-02T03:50:29.284Z,0
2016-11-02T03:51:37.981Z,0
2016-11-02T03:52:46.684Z,0
2016-11-02T03:53:55.396Z,0
2016-11-02T03:55:04.093Z,0
2016-11-02T03:56:12.797Z,0
2016-11-02T03:57:21.494Z,0
2016-11-02T03:58:30.208Z,0
2016-11-02T03:59:38.905Z,0
2016-11-02T04:00:47.603Z,0
2016-11-02T04:01:56.306Z,0
2016-11-02T04:03:05.007Z,0
2016-11-02T04:04:13.743Z,0
2016-11-02T04:05:22.435Z,0
2016-11-02T04:06:31.133Z,0
2016-11-02T04:07:39.859Z,0
2016-11-02T04:08:48.553Z,0
2016-11-02T04:09:57.244Z,0
2016-11-02T04:11:06.291Z,0
2016-11-02T04:12:14.997Z,0
2016-11-02T04:13:23.691Z,0
2016-11-02T04:14:32.387Z,0
2016-11-02T04:15:41.098Z,0
2016-11-02T04:16:49.793Z,0
2016-11-02T04:17:58.491Z,0
2016-11-02T04:19:07.183Z,0
2016-11-02T04:20:15.876Z,0
2016-11-02T04:21:24.604Z,0
2016-11-02T04:22:33.303Z,0
2016-11-02T04:23:42.006Z,0
2016-11-02T04:24:50.702Z,0
2016-11-02T04:25:59.399Z,0
2016-11-02T04:27:08.100Z,0
2016-11-02T04:28:16.796Z,0
2016-11-02T04:29:25.493Z,0
2016-11-02T04:30:34.182Z,0
2016-11-02T04:31:42.873Z,0
2016-11-02T04:32:51.564Z,0
2016-11-02T04:34:00.263Z,0
2016-11-02T04:35:08.962Z,0
2016-11-02T04:36:17.656Z,0
2016-11-02T04:37:26.352Z,0
2016-11-02T04:38:35.054Z,0
2016-11-02T04:39:43.751Z,0
2016-11-02T04:40:52.448Z,0
2016-11-02T04:42:01.143Z,0
2016-11-02T04:43:09.839Z,0
2016-11-02T04:44:18.575Z,0
2016-11-02T04:45:27.272Z,0
2016-11-02T04:46:35.973Z,0
2016-11-02T04:47:44.709Z,0
2016-11-02T04:48:53.401Z,0
2016-11-02T04:50:02.096Z,0
2016-11-02T04:51:10.827Z,0
2016-11-02T04:52:19.526Z,0
2016-11-02T04:53:28.219Z,0
2016-11-02T04:54:36.914Z,0
2016-11-02T04:55:45.609Z,0
2016-11-02T04:56:54.306Z,0
2016-11-02T04:58:03.001Z,0
2016-11-02T04:59:11.694Z,0
2016-11-02T05:00:20.391Z,0
2016-11-02T05:01:29.123Z,0
2016-11-02T05:02:37.822Z,0
2016-11-02T05:03:46.520Z,0
2016-11-02T05:04:55.215Z,0
2016-11-02T05:06:03.953Z,0
2016-11-02T05:07:12.651Z,0
2016-11-02T05:08:21.345Z,0
2016-11-02T05:09:30.044Z,0
2016-11-02T05:10:38.777Z,0
2016-11-02T05:11:47.469Z,0
2016-11-02T05:12:56.156Z,0
2016-11-02T05:14:04.850Z,0
2016-11-02T05:15:13.546Z,0
2016-11-02T05:16:22.245Z,0
2016-11-02T05:17:30.938Z,0
2016-11-02T05:18:39.655Z,0
2016-11-02T05:19:48.350Z,0
2016-11-02T05:20:57.047Z,0
2016-11-02T05:22:05.743Z,0
2016-11-02T05:23:14.439Z,0
2016-11-02T05:24:23.161Z,0
2016-11-02T05:25:31.908Z,0
2016-11-02T05:26:40.611Z,0
2016-11-02T05:27:49.360Z,0
2016-11-02T05:28:58.055Z,0
2016-11-02T05:30:06.755Z,0
2016-11-02T05:31:15.451Z,0
2016-11-02T05:32:24.144Z,0
2016-11-02T05:33:32.842Z,0
2016-11-02T05:34:41.579Z,0
2016-11-02T05:35:50.277Z,0
2016-11-02T05:36:58.969Z,0
2016-11-02T05:38:07.667Z,0
2016-11-02T05:39:16.366Z,0
2016-11-02T05:40:25.098Z,0
2016-11-02T05:41:33.794Z,0
2016-11-02T05:42:42.491Z,0
2016-11-02T05:43:51.504Z,0
2016-11-02T05:45:00.204Z,0
2016-11-02T05:46:08.901Z,0
2016-11-02T05:47:17.597Z,0
2016-11-02T05:48:26.294Z,0
2016-11-02T05:49:34.991Z,0
2016-11-02T05:50:43.692Z,0
2016-11-02T05:51:52.390Z,0
2016-11-02T05:53:01.086Z,0
2016-11-02T05:54:09.784Z,0
2016-11-02T05:55:18.485Z,0
2016-11-02T05:56:27.182Z,0
2016-11-02T05:57:36.190Z,0
2016-11-02T05:58:45.209Z,0
2016-11-02T05:59:53.906Z,0
2016-11-02T06:01:02.608Z,0
2016-11-02T06:02:11.309Z,0
2016-11-02T06:03:20.386Z,0
2016-11-02T06:04:29.085Z,0
2016-11-02T06:05:37.781Z,0
2016-11-02T06:06:46.478Z,0
2016-11-02T06:07:55.176Z,0
2016-11-02T06:09:03.871Z,0
2016-11-02T06:10:12.567Z,0
2016-11-02T06:11:21.260Z,0
2016-11-02T06:12:29.959Z,0
2016-11-02T06:13:38.683Z,0
2016-11-02T06:14:47.377Z,0
2016-11-02T06:15:56.077Z,0
2016-11-02T06:17:04.814Z,0
2016-11-02T06:18:13.507Z,0
2016-11-02T06:19:22.199Z,0
2016-11-02T06:20:30.894Z,0
2016-11-02T06:21:39.626Z,0
2016-11-02T06:22:48.316Z,0
2016-11-02T06:23:57.010Z,0
2016-11-02T06:25:05.703Z,0
2016-11-02T06:26:14.400Z,0
2016-11-02T06:27:23.132Z,0
2016-11-02T06:28:31.859Z,0
2016-11-02T06:29:40.558Z,0
2016-11-02T06:30:49.261Z,0
2016-11-02T06:31:57.958Z,0
2016-11-02T06:33:06.654Z,0
2016-11-02T06:34:15.348Z,0
2016-11-02T06:35:24.043Z,0
2016-11-02T06:36:32.751Z,0
2016-11-02T06:37:41.488Z,0
2016-11-02T06:38:50.186Z,0
2016-11-02T06:39:58.920Z,0
2016-11-02T06:41:07.622Z,0
2016-11-02T06:42:16.320Z,0
2016-11-02T06:43:25.018Z,0
2016-11-02T06:44:33.709Z,5
2016-11-02T06:45:42.402Z,5
2016-11-02T06:46:51.444Z,5
2016-11-02T06:48:00.462Z,5
2016-11-02T06:49:09.166Z,5
2016-11-02T06:50:17.862Z,5
2016-11-02T06:51:26.558Z,5
2016-11-02T06:52:35.257Z,5
2016-11-02T06:53:43.985Z,5
2016-11-02T06:54:52.679Z,5
2016-11-02T06:56:01.423Z,5
2016-11-02T06:57:10.118Z,10
2016-11-02T06:58:18.889Z,10
2016-11-02T06:59:27.614Z,10
2016-11-02T07:00:36.309Z,10
2016-11-02T07:01:45.323Z,10
2016-11-02T07:02:54.058Z,10
2016-11-02T07:04:02.754Z,10
2016-11-02T07:05:11.476Z,10
2016-11-02T07:06:20.486Z,10
2016-11-02T07:07:29.182Z,10
2016-11-02T07:08:37.876Z,10
2016-11-02T07:09:46.891Z,10
2016-11-02T07:10:55.587Z,10
2016-11-02T07:12:04.280Z,10
2016-11-02T07:13:12.980Z,10
2016-11-02T07:14:21.678Z,10
2016-11-02T07:15:30.407Z,10
2016-11-02T07:16:39.096Z,10
2016-11-02T07:17:47.790Z,10
2016-11-02T07:18:56.486Z,15
2016-11-02T07:20:05.180Z,15
2016-11-02T07:21:13.877Z,20
2016-11-02T07:22:22.581Z,25
2016-11-02T07:23:31.637Z,30
2016-11-02T07:24:40.337Z,35
2016-11-02T07:25:49.032Z,35
2016-11-02T07:26:57.728Z,40
2016-11-02T07:28:06.692Z,40
2016-11-02T07:29:15.385Z,45
2016-11-02T07:30:24.082Z,45
2016-11-02T07:31:32.774Z,45
2016-11-02T07:32:41.468Z,45
2016-11-02T07:33:50.202Z,50
2016-11-02T07:34:58.906Z,50
2016-11-02T07:36:07.605Z,55
2016-11-02T07:37:16.301Z,55
2016-11-02T07:38:24.997Z,55
2016-11-02T07:39:33.695Z,55
2016-11-02T07:40:42.394Z,55
2016-11-02T07:41:51.086Z,60
2016-11-02T07:42:59.783Z,60
2016-11-02T07:44:08.491Z,60
2016-11-02T07:45:17.185Z,60
2016-11-02T07:46:25.878Z,60
2016-11-02T07:47:34.579Z,60
2016-11-02T07:48:43.385Z,60
2016-11-02T07:49:52.117Z,65
2016-11-02T07:51:00.808Z,65
2016-11-02T07:52:09.518Z,70
2016-11-02T07:53:18.533Z,75
2016-11-02T07:54:27.230Z,80
2016-11-02T07:55:35.928Z,80
2016-11-02T07:56:44.624Z,85
2016-11-02T07:57:53.352Z,85
2016-11-02T07:59:02.045Z,85
2016-11-02T08:00:10.744Z,85
2016-11-02T08:01:19.436Z,90
2016-11-02T08:02:28.129Z,90
2016-11-02T08:03:36.828Z,95
2016-11-02T08:04:45.860Z,95
2016-11-02T08:05:54.558Z,100
2016-11-02T08:07:03.254Z,105
2016-11-02T08:08:11.952Z,100
2016-11-02T08:09:20.655Z,100
2016-11-02T08:10:29.353Z,105
2016-11-02T08:11:38.049Z,105
2016-11-02T08:12:46.750Z,105
2016-11-02T08:13:55.454Z,110
2016-11-02T08:15:04.154Z,110
2016-11-02T08:16:12.862Z,110
2016-11-02T08:17:21.557Z,115
2016-11-02T08:18:30.256Z,115
2016-11-02T08:19:38.947Z,115
2016-11-02T08:20:47.642Z,120
2016-11-02T08:21:56.339Z,120
2016-11-02T08:23:05.352Z,120
2016-11-02T08:24:14.051Z,120
2016-11-02T08:25:22.751Z,125
2016-11-02T08:26:31.475Z,130
2016-11-02T08:27:40.175Z,125
2016-11-02T08:28:48.905Z,125
2016-11-02T08:29:57.603Z,125
2016-11-02T08:31:06.300Z,120
2016-11-02T08:32:15.037Z,120
2016-11-02T08:33:23.766Z,120
2016-11-02T08:34:32.467Z,120
2016-11-02T08:35:41.235Z,125
2016-11-02T08:36:49.952Z,125
2016-11-02T08:37:58.667Z,125
2016-11-02T08:39:07.365Z,125
2016-11-02T08:40:16.056Z,130
2016-11-02T08:41:24.754Z,130
2016-11-02T08:42:33.454Z,135
2016-11-02T08:43:42.196Z,140
2016-11-02T08:44:50.890Z,140
2016-11-02T08:45:59.620Z,140
2016-11-02T08:47:08.311Z,145
2016-11-02T08:48:17.010Z,145
2016-11-02T08:49:25.706Z,145
2016-11-02T08:50:34.410Z,145
2016-11-02T08:51:43.108Z,150
2016-11-02T08:52:51.805Z,150
2016-11-02T08:54:00.499Z,160
2016-11-02T08:55:09.196Z,160
2016-11-02T08:56:17.894Z,165
2016-11-02T08:57:26.587Z,165
2016-11-02T08:58:35.302Z,165
2016-11-02T08:59:44.003Z,165
2016-11-02T09:00:52.699Z,170
2016-11-02T09:02:01.394Z,170
2016-11-02T09:03:10.398Z,170
2016-11-02T09:04:19.093Z,170
2016-11-02T09:05:27.795Z,175
2016-11-02T09:06:36.494Z,180
2016-11-02T09:07:45.190Z,190
2016-11-02T09:08:53.886Z,205
2016-11-02T09:10:02.582Z,205
2016-11-02T09:11:11.275Z,210
2016-11-02T09:12:19.972Z,205
2016-11-02T09:13:28.663Z,210
2016-11-02T09:14:37.398Z,220
2016-11-02T09:15:46.092Z,220
2016-11-02T09:16:54.830Z,225
2016-11-02T09:18:03.534Z,225
2016-11-02T09:19:12.229Z,235
2016-11-02T09:20:20.924Z,235
2016-11-02T09:21:29.620Z,235
2016-11-02T09:22:38.311Z,235
2016-11-02T09:23:47.001Z,235
2016-11-02T09:24:55.700Z,235
2016-11-02T09:26:04.401Z,240
2016-11-02T09:27:13.101Z,235
2016-11-02T09:28:21.798Z,240
2016-11-02T09:29:30.492Z,240
2016-11-02T09:30:39.186Z,245
2016-11-02T09:31:47.885Z,245
2016-11-02T09:32:56.623Z,245
2016-11-02T09:34:05.322Z,250
2016-11-02T09:35:14.022Z,245
2016-11-02T09:36:22.714Z,240
2016-11-02T09:37:31.410Z,240
2016-11-02T09:38:40.099Z,235
2016-11-02T09:39:48.794Z,235
2016-11-02T09:40:57.501Z,240
2016-11-02T09:42:06.193Z,240
2016-11-02T09:43:15.039Z,245
2016-11-02T09:44:23.739Z,245
2016-11-02T09:45:32.429Z,250
2016-11-02T09:46:41.133Z,245
2016-11-02T09:47:49.875Z,245
2016-11-02T09:48:58.821Z,245
2016-11-02T09:50:07.562Z,250
2016-11-02T09:51:16.258Z,250
2016-11-02T09:52:24.960Z,255
2016-11-02T09:53:33.967Z,255
2016-11-02T09:54:42.714Z,255
2016-11-02T09:55:51.417Z,255
2016-11-02T09:57:00.109Z,260
2016-11-02T09:58:08.817Z,260
2016-11-02T09:59:17.523Z,255
2016-11-02T10:00:26.226Z,260
2016-11-02T10:01:34.921Z,255
2016-11-02T10:02:43.622Z,255
2016-11-02T10:03:52.634Z,255
2016-11-02T10:05:01.333Z,255
2016-11-02T10:06:10.041Z,260
2016-11-02T10:07:18.735Z,260
2016-11-02T10:08:27.430Z,255
2016-11-02T10:09:36.501Z,250
2016-11-02T10:10:45.199Z,250
2016-11-02T10:11:54.581Z,240
2016-11-02T10:13:03.282Z,240
2016-11-02T10:14:11.977Z,240
2016-11-02T10:15:20.680Z,240
2016-11-02T10:16:29.376Z,230
2016-11-02T10:17:38.356Z,235
2016-11-02T10:18:47.365Z,240
2016-11-02T10:19:56.069Z,235
2016-11-02T10:21:04.805Z,240
2016-11-02T10:22:13.502Z,250
2016-11-02T10:23:22.200Z,250
2016-11-02T10:24:30.894Z,240
2016-11-02T10:25:39.598Z,245
2016-11-02T10:26:48.296Z,245
2016-11-02T10:27:56.988Z,240
2016-11-02T10:29:05.685Z,235
2016-11-02T10:30:14.382Z,335
2016-11-02T10:31:23.392Z,350
2016-11-02T10:32:32.100Z,375
2016-11-02T10:33:40.792Z,360
2016-11-02T10:34:49.490Z,240
2016-11-02T10:35:58.186Z,220
2016-11-02T10:37:06.889Z,215
2016-11-02T10:38:15.587Z,220
2016-11-02T10:39:24.284Z,215
2016-11-02T10:40:32.977Z,210
2016-11-02T10:41:41.684Z,210
2016-11-02T10:42:50.383Z,210
2016-11-02T10:43:59.075Z,210
2016-11-02T10:45:08.089Z,220
2016-11-02T10:46:16.781Z,225
2016-11-02T10:47:25.474Z,235
2016-11-02T10:48:34.162Z,245
2016-11-02T10:49:42.862Z,250
2016-11-02T10:50:51.564Z,250
2016-11-02T10:52:00.269Z,255
2016-11-02T10:53:08.966Z,260
2016-11-02T10:54:17.669Z,250
2016-11-02T10:55:26.370Z,260
2016-11-02T10:56:35.072Z,270
2016-11-02T10:57:43.776Z,280
2016-11-02T10:58:52.474Z,290
2016-11-02T11:00:01.167Z,300
2016-11-02T11:01:09.867Z,310
2016-11-02T11:02:18.591Z,320
2016-11-02T11:03:27.606Z,330
2016-11-02T11:04:36.301Z,405
2016-11-02T11:05:44.994Z,380
2016-11-02T11:06:53.685Z,405
2016-11-02T11:08:02.377Z,390
2016-11-02T11:09:11.071Z,370
2016-11-02T11:10:19.768Z,355
2016-11-02T11:11:28.461Z,395
2016-11-02T11:12:37.152Z,515
2016-11-02T11:13:45.846Z,565
2016-11-02T11:14:54.548Z,575
2016-11-02T11:16:03.247Z,585
2016-11-02T11:17:11.946Z,590
2016-11-02T11:18:20.650Z,625
2016-11-02T11:19:29.352Z,625
2016-11-02T11:20:38.044Z,610
2016-11-02T11:21:46.742Z,595
2016-11-02T11:22:55.448Z,590
2016-11-02T11:24:04.145Z,585
2016-11-02T11:25:12.850Z,590
2016-11-02T11:26:21.544Z,605
2016-11-02T11:27:30.244Z,630
2016-11-02T11:28:39.002Z,535
2016-11-02T11:29:47.712Z,345
2016-11-02T11:30:56.417Z,330
2016-11-02T11:32:05.434Z,320
2016-11-02T11:33:14.141Z,415
2016-11-02T11:34:22.842Z,410
2016-11-02T11:35:31.543Z,300
2016-11-02T11:36:40.247Z,425
2016-11-02T11:37:48.952Z,460
2016-11-02T11:38:57.652Z,410
2016-11-02T11:40:06.352Z,335
2016-11-02T11:41:15.053Z,340
2016-11-02T11:42:23.753Z,360
2016-11-02T11:43:32.453Z,360
2016-11-02T11:44:41.153Z,405
2016-11-02T11:45:50.160Z,365
2016-11-02T11:46:58.862Z,665
2016-11-02T11:48:07.564Z,660
2016-11-02T11:49:16.268Z,580
2016-11-02T11:50:24.978Z,590
2016-11-02T11:51:33.684Z,695
2016-11-02T11:52:42.389Z,685
2016-11-02T11:53:51.127Z,675
2016-11-02T11:54:59.857Z,525
2016-11-02T11:56:08.875Z,330
2016-11-02T11:57:17.578Z,595
2016-11-02T11:58:26.276Z,345
2016-11-02T11:59:34.981Z,315
2016-11-02T12:00:43.719Z,300
2016-11-02T12:01:52.421Z,285
2016-11-02T12:03:01.166Z,270
2016-11-02T12:04:09.881Z,200
2016-11-02T12:05:18.584Z,185
2016-11-02T12:06:27.337Z,210
2016-11-02T12:07:36.056Z,225
2016-11-02T12:08:44.756Z,230
2016-11-02T12:09:53.458Z,245
2016-11-02T12:11:02.190Z,245
2016-11-02T12:12:10.892Z,225
2016-11-02T12:13:19.589Z,230
2016-11-02T12:14:28.289Z,230
2016-11-02T12:15:36.989Z,250
2016-11-02T12:16:45.687Z,250
2016-11-02T12:17:54.386Z,230
2016-11-02T12:19:03.119Z,200
2016-11-02T12:20:11.822Z,170
2016-11-02T12:21:20.524Z,160
2016-11-02T12:22:29.221Z,150
2016-11-02T12:23:37.917Z,160
2016-11-02T12:24:46.615Z,155
2016-11-02T12:25:55.367Z,150
2016-11-02T12:27:04.071Z,150
2016-11-02T12:28:12.773Z,150
2016-11-02T12:29:21.510Z,150
2016-11-02T12:30:30.215Z,145
2016-11-02T12:31:38.947Z,140
2016-11-02T12:32:47.647Z,135
2016-11-02T12:33:56.347Z,155
2016-11-02T12:35:05.046Z,150
2016-11-02T12:36:13.737Z,125
2016-11-02T12:37:22.439Z,105
2016-11-02T12:38:31.135Z,105
2016-11-02T12:39:39.836Z,110
2016-11-02T12:40:48.530Z,110
2016-11-02T12:41:57.227Z,105
2016-11-02T12:43:05.920Z,110
2016-11-02T12:44:14.623Z,95
2016-11-02T12:45:23.319Z,95
2016-11-02T12:46:32.015Z,95
2016-11-02T12:47:40.719Z,90
2016-11-02T12:48:49.426Z,90
2016-11-02T12:49:58.122Z,95
2016-11-02T12:51:06.855Z,95
2016-11-02T12:52:15.606Z,100
2016-11-02T12:53:24.301Z,110
2016-11-02T12:54:33.001Z,115
2016-11-02T12:55:41.697Z,115
2016-11-02T12:56:50.391Z,105
2016-11-02T12:57:59.098Z,100
2016-11-02T12:59:08.110Z,95
2016-11-02T13:00:16.812Z,90
2016-11-02T13:01:25.511Z,95
2016-11-02T13:02:34.204Z,100
2016-11-02T13:03:42.897Z,105
2016-11-02T13:04:51.591Z,120
2016-11-02T13:06:00.293Z,125
2016-11-02T13:07:08.987Z,125
2016-11-02T13:08:17.679Z,125
2016-11-02T13:09:26.408Z,120
2016-11-02T13:10:35.099Z,125
2016-11-02T13:11:43.792Z,120
2016-11-02T13:12:52.488Z,120
2016-11-02T13:14:01.183Z,120
2016-11-02T13:15:09.876Z,120
2016-11-02T13:16:18.575Z,125
2016-11-02T13:17:27.350Z,130
2016-11-02T13:18:36.050Z,135
2016-11-02T13:19:44.743Z,135
2016-11-02T13:20:53.435Z,130
2016-11-02T13:22:02.139Z,125
2016-11-02T13:23:10.831Z,135
2016-11-02T13:24:19.532Z,145
2016-11-02T13:25:28.225Z,170
2016-11-02T13:26:36.923Z,190
2016-11-02T13:27:45.616Z,205
2016-11-02T13:28:54.358Z,215
2016-11-02T13:30:03.055Z,215
2016-11-02T13:31:11.754Z,195
2016-11-02T13:32:20.512Z,205
2016-11-02T13:33:29.211Z,215
2016-11-02T13:34:37.909Z,220
2016-11-02T13:35:46.607Z,200
2016-11-02T13:36:55.305Z,175
2016-11-02T13:38:04.001Z,160
2016-11-02T13:39:13.378Z,160
2016-11-02T13:40:22.087Z,390
2016-11-02T13:41:30.782Z,565
2016-11-02T13:42:39.507Z,485
2016-11-02T13:43:48.215Z,310
2016-11-02T13:44:56.919Z,180
2016-11-02T13:46:05.614Z,150
2016-11-02T13:47:14.307Z,140
2016-11-02T13:48:23.007Z,145
2016-11-02T13:49:31.708Z,145
2016-11-02T13:50:40.416Z,155
2016-11-02T13:51:49.124Z,170
2016-11-02T13:52:57.828Z,185
2016-11-02T13:54:06.529Z,195
2016-11-02T13:55:15.263Z,195
2016-11-02T13:56:23.993Z,180
2016-11-02T13:57:32.690Z,170
2016-11-02T13:58:41.712Z,170
2016-11-02T13:59:50.444Z,175
2016-11-02T14:00:59.142Z,170
2016-11-02T14:02:08.156Z,165
2016-11-02T14:03:16.861Z,155
2016-11-02T14:04:25.574Z,145
2016-11-02T14:05:34.292Z,135
2016-11-02T14:06:42.997Z,130
2016-11-02T14:07:51.692Z,125
2016-11-02T14:09:00.380Z,115
2016-11-02T14:10:09.075Z,110
2016-11-02T14:11:17.785Z,105
2016-11-02T14:12:26.829Z,100
2016-11-02T14:13:35.529Z,85
2016-11-02T14:14:44.966Z,85
2016-11-02T14:15:53.664Z,85
2016-11-02T14:17:02.362Z,85
2016-11-02T14:18:11.062Z,80
2016-11-02T14:19:19.755Z,75
2016-11-02T14:20:28.451Z,75
2016-11-02T14:21:37.141Z,75
2016-11-02T14:22:45.838Z,75
2016-11-02T14:23:54.533Z,75
2016-11-02T14:25:03.229Z,75
2016-11-02T14:26:11.959Z,70
2016-11-02T14:27:20.650Z,70
2016-11-02T14:28:29.345Z,65
2016-11-02T14:29:39.034Z,60
2016-11-02T14:30:48.799Z,60
2016-11-02T14:31:57.826Z,60
2016-11-02T14:33:06.611Z,55
2016-11-02T14:34:15.703Z,55
2016-11-02T14:35:25.298Z,50
2016-11-02T14:36:34.435Z,50
2016-11-02T14:37:43.134Z,50
2016-11-02T14:38:51.867Z,50
2016-11-02T14:40:00.562Z,50
2016-11-02T14:41:09.267Z,50
2016-11-02T14:42:17.990Z,50
2016-11-02T14:43:26.720Z,50
2016-11-02T14:44:35.416Z,50
2016-11-02T14:45:44.108Z,50
2016-11-02T14:46:53.153Z,50
2016-11-02T14:48:01.858Z,50
2016-11-02T14:49:10.556Z,45
2016-11-02T14:50:19.255Z,45
2016-11-02T14:51:28.268Z,45
2016-11-02T14:52:36.961Z,40
2016-11-02T14:53:45.658Z,40
2016-11-02T14:54:54.367Z,40
2016-11-02T14:56:03.064Z,35
2016-11-02T14:57:11.761Z,35
2016-11-02T14:58:20.458Z,30
2016-11-02T14:59:29.196Z,30
2016-11-02T15:00:37.893Z,30
2016-11-02T15:01:46.591Z,25
2016-11-02T15:02:55.291Z,25
2016-11-02T15:04:04.002Z,20
2016-11-02T15:05:12.701Z,20
2016-11-02T15:06:21.438Z,20
2016-11-02T15:07:30.134Z,20
2016-11-02T15:08:38.830Z,20
2016-11-02T15:09:47.524Z,15
2016-11-02T15:10:56.227Z,15
2016-11-02T15:12:04.927Z,15
2016-11-02T15:13:13.938Z,15
2016-11-02T15:14:22.630Z,15
2016-11-02T15:15:31.321Z,15
2016-11-02T15:16:40.022Z,10
2016-11-02T15:17:49.031Z,10
2016-11-02T15:18:57.729Z,10
2016-11-02T15:20:06.437Z,10
2016-11-02T15:21:15.175Z,10
2016-11-02T15:22:23.868Z,10
2016-11-02T15:23:32.603Z,5
2016-11-02T15:24:41.931Z,5
2016-11-02T15:25:50.636Z,5
2016-11-02T15:26:59.329Z,5
2016-11-02T15:28:08.029Z,5
2016-11-02T15:29:16.768Z,5
2016-11-02T15:30:25.465Z,5
2016-11-02T15:31:34.166Z,5
2016-11-02T15:32:42.909Z,0
2016-11-02T15:33:51.612Z,0
2016-11-02T15:35:00.313Z,0
2016-11-02T15:36:09.004Z,0
2016-11-02T15:37:17.696Z,0
2016-11-02T15:38:26.383Z,0
2016-11-02T15:39:35.078Z,0
2016-11-02T15:40:43.789Z,0
2016-11-02T15:41:52.486Z,0
2016-11-02T15:43:01.177Z,0
2016-11-02T15:44:09.870Z,0
2016-11-02T15:45:18.565Z,0
2016-11-02T15:46:27.257Z,0
2016-11-02T15:47:35.945Z,0
2016-11-02T15:48:44.641Z,0
2016-11-02T15:49:53.336Z,0
2016-11-02T15:51:02.028Z,0
2016-11-02T15:52:10.720Z,0
2016-11-02T15:53:19.415Z,0
2016-11-02T15:54:28.424Z,0
2016-11-02T15:55:37.160Z,0
2016-11-02T15:56:45.855Z,0
2016-11-02T15:57:54.557Z,0
2016-11-02T15:59:03.248Z,0
2016-11-02T16:00:11.976Z,0
2016-11-02T16:01:20.666Z,0
2016-11-02T16:02:29.357Z,0
2016-11-02T16:03:38.048Z,0
2016-11-02T16:04:46.740Z,0
2016-11-02T16:05:55.433Z,0
2016-11-02T16:07:04.126Z,0
2016-11-02T16:08:12.822Z,0
2016-11-02T16:09:21.530Z,0
2016-11-02T16:10:30.218Z,0
2016-11-02T16:11:38.908Z,0
2016-11-02T16:12:47.637Z,0
2016-11-02T16:13:56.329Z,0
2016-11-02T16:15:05.339Z,0
2016-11-02T16:16:14.033Z,0
2016-11-02T16:17:22.720Z,0
2016-11-02T16:18:31.422Z,0
2016-11-02T16:19:40.116Z,0
2016-11-02T16:20:48.813Z,0
2016-11-02T16:21:57.507Z,0
2016-11-02T16:23:06.275Z,0
2016-11-02T16:24:14.966Z,0